createdAt,value
2023-01-29T00:00:19.360Z,5.77
2023-01-29T00:02:52.237Z,6.73
2023-01-29T00:05:27.799Z,6.00
2023-01-29T00:07:58.291Z,6.60
2023-01-29T00:10:27.821Z,6.20
2023-01-29T00:12:56.475Z,6.30
2023-01-29T00:15:24.969Z,6.67
2023-01-29T00:17:53.421Z,6.03
2023-01-29T00:20:23.978Z,6.50
2023-01-29T00:22:52.495Z,6.27
2023-01-29T00:25:21.007Z,6.70
2023-01-29T00:27:49.474Z,6.70
2023-01-29T00:30:19.810Z,7.07
2023-01-29T00:32:49.020Z,6.20
2023-01-29T00:35:17.890Z,6.13
2023-01-29T00:37:47.825Z,6.37
2023-01-29T00:40:17.060Z,6.93
2023-01-29T00:43:04.211Z,6.23
2023-01-29T00:45:34.353Z,6.17
2023-01-29T00:48:02.692Z,5.90
2023-01-29T00:50:31.264Z,6.10
2023-01-29T00:53:01.324Z,6.23
2023-01-29T00:55:29.992Z,5.87
2023-01-29T00:57:59.029Z,7.27
2023-01-29T01:00:27.507Z,6.13
2023-01-29T01:03:07.415Z,6.40
2023-01-29T01:05:37.089Z,6.80
2023-01-29T01:08:28.757Z,6.43
2023-01-29T01:11:02.325Z,6.20
2023-01-29T01:13:32.750Z,6.13
2023-01-29T01:16:01.584Z,5.73
2023-01-29T01:18:31.661Z,6.27
2023-01-29T01:21:00.181Z,6.70
2023-01-29T01:23:30.761Z,6.33
2023-01-29T01:25:59.390Z,6.53
2023-01-29T01:28:29.143Z,7.10
2023-01-29T01:30:57.672Z,6.33
2023-01-29T01:33:26.031Z,6.40
2023-01-29T01:35:54.763Z,6.43
2023-01-29T01:38:23.536Z,6.07
2023-01-29T01:40:53.473Z,6.07
2023-01-29T01:43:22.408Z,6.30
2023-01-29T01:45:51.189Z,6.50
2023-01-29T01:48:23.902Z,7.33
2023-01-29T01:50:57.985Z,6.00
2023-01-29T01:53:34.869Z,6.20
2023-01-29T01:56:09.247Z,6.57
2023-01-29T01:58:42.143Z,6.90
2023-01-29T02:01:12.483Z,6.77
2023-01-29T02:04:05.527Z,6.03
2023-01-29T02:06:53.065Z,6.27
2023-01-29T02:09:35.879Z,6.80
2023-01-29T02:12:10.252Z,6.27
2023-01-29T02:14:41.250Z,6.30
2023-01-29T02:17:13.477Z,6.47
2023-01-29T02:19:51.424Z,6.63
2023-01-29T02:22:55.379Z,6.43
2023-01-29T02:26:08.858Z,6.27
2023-01-29T02:28:49.090Z,5.97
2023-01-29T02:31:26.992Z,6.77
2023-01-29T02:34:07.171Z,6.87
2023-01-29T02:36:42.922Z,6.37
2023-01-29T02:39:18.890Z,6.47
2023-01-29T02:42:04.098Z,6.47
2023-01-29T02:44:39.904Z,6.23
2023-01-29T02:47:18.775Z,6.20
2023-01-29T02:49:51.840Z,6.23
2023-01-29T02:52:26.627Z,6.20
2023-01-29T02:55:02.956Z,7.00
2023-01-29T02:57:36.083Z,6.27
2023-01-29T03:00:13.367Z,6.93
2023-01-29T03:02:50.779Z,6.70
2023-01-29T03:05:32.910Z,6.80
2023-01-29T03:08:10.587Z,6.53
2023-01-29T03:10:45.602Z,6.87
2023-01-29T03:13:19.862Z,6.50
2023-01-29T03:16:01.446Z,6.80
2023-01-29T03:18:46.381Z,6.13
2023-01-29T03:21:40.027Z,6.93
2023-01-29T03:24:31.477Z,6.00
2023-01-29T03:27:22.751Z,6.87
2023-01-29T03:30:12.839Z,6.20
2023-01-29T03:32:53.612Z,6.70
2023-01-29T03:35:35.447Z,6.73
2023-01-29T03:38:05.819Z,6.77
2023-01-29T03:40:44.379Z,6.63
2023-01-29T03:43:24.272Z,7.07
2023-01-29T03:46:06.002Z,6.77
2023-01-29T03:48:41.487Z,7.37
2023-01-29T03:51:23.008Z,7.70
2023-01-29T03:53:57.511Z,7.57
2023-01-29T03:56:40.976Z,7.87
2023-01-29T03:59:24.042Z,7.37
2023-01-29T04:02:31.090Z,7.83
2023-01-29T04:05:12.753Z,7.70
2023-01-29T04:08:01.939Z,7.37
2023-01-29T04:10:31.256Z,7.80
2023-01-29T04:13:03.611Z,7.63
2023-01-29T04:15:38.147Z,7.80
2023-01-29T04:18:06.940Z,8.20
2023-01-29T04:20:48.618Z,7.60
2023-01-29T04:23:25.655Z,8.00
2023-01-29T04:26:14.670Z,8.07
2023-01-29T04:29:10.105Z,7.97
2023-01-29T04:31:49.017Z,7.70
2023-01-29T04:34:27.445Z,7.37
2023-01-29T04:37:07.938Z,7.57
2023-01-29T04:39:48.444Z,6.97
2023-01-29T04:42:27.969Z,7.53
2023-01-29T04:45:06.709Z,7.17
2023-01-29T04:47:43.599Z,7.40
2023-01-29T04:50:19.208Z,8.17
2023-01-29T04:52:59.662Z,7.90
2023-01-29T04:55:37.386Z,8.23
2023-01-29T04:58:14.008Z,7.80
2023-01-29T05:00:45.834Z,8.27
2023-01-29T05:03:17.646Z,8.60
2023-01-29T05:05:49.179Z,8.40
2023-01-29T05:08:22.727Z,9.53
2023-01-29T05:10:52.934Z,8.47
2023-01-29T05:13:23.364Z,8.43
2023-01-29T05:15:58.075Z,8.67
2023-01-29T05:18:26.562Z,9.30
2023-01-29T05:20:58.034Z,9.03
2023-01-29T05:23:28.516Z,8.80
2023-01-29T05:25:58.818Z,8.57
2023-01-29T05:28:26.286Z,9.17
2023-01-29T05:30:57.266Z,8.97
2023-01-29T05:33:28.323Z,9.00
2023-01-29T05:35:58.411Z,8.83
2023-01-29T05:38:28.320Z,8.80
2023-01-29T05:40:59.657Z,8.50
2023-01-29T05:43:28.237Z,9.30
2023-01-29T05:45:58.418Z,9.00
2023-01-29T05:48:28.805Z,9.03
2023-01-29T05:51:02.101Z,8.63
2023-01-29T05:53:33.629Z,8.37
2023-01-29T05:56:04.113Z,8.20
2023-01-29T05:58:32.894Z,7.63
2023-01-29T06:01:11.178Z,8.77
2023-01-29T06:03:40.032Z,8.70
2023-01-29T06:06:09.083Z,9.17
2023-01-29T06:08:39.366Z,8.30
2023-01-29T06:11:11.074Z,7.93
2023-01-29T06:13:39.908Z,8.67
2023-01-29T06:16:10.342Z,8.23
2023-01-29T06:18:40.066Z,8.57
2023-01-29T06:21:11.471Z,8.77
2023-01-29T06:23:41.922Z,8.33
2023-01-29T06:26:14.233Z,7.57
2023-01-29T06:28:43.831Z,8.03
2023-01-29T06:31:35.186Z,8.00
2023-01-29T06:34:01.635Z,7.57
2023-01-29T06:36:30.009Z,8.03
2023-01-29T06:38:59.800Z,7.83
2023-01-29T06:41:28.668Z,7.70
2023-01-29T06:43:57.412Z,8.23
2023-01-29T06:46:25.936Z,7.90
2023-01-29T06:48:54.447Z,7.17
2023-01-29T06:51:23.247Z,8.30
2023-01-29T06:53:51.709Z,8.30
2023-01-29T06:56:21.978Z,8.13
2023-01-29T06:58:50.542Z,7.50
2023-01-29T07:01:34.780Z,7.50
2023-01-29T07:04:05.467Z,7.80
2023-01-29T07:06:34.751Z,7.37
2023-01-29T07:09:03.698Z,7.03
2023-01-29T07:11:35.912Z,7.83
2023-01-29T07:14:04.882Z,7.23
2023-01-29T07:16:33.900Z,7.83
2023-01-29T07:19:02.608Z,7.53
2023-01-29T07:21:31.092Z,7.53
2023-01-29T07:23:59.619Z,7.90
2023-01-29T07:26:28.504Z,7.33
2023-01-29T07:28:58.654Z,8.57
2023-01-29T07:31:27.148Z,7.63
2023-01-29T07:33:55.961Z,7.47
2023-01-29T07:36:25.153Z,8.47
2023-01-29T07:38:53.830Z,7.17
2023-01-29T07:41:22.304Z,7.73
2023-01-29T07:43:51.056Z,7.63
2023-01-29T07:46:21.388Z,8.13
2023-01-29T07:48:49.922Z,7.33
2023-01-29T07:51:18.603Z,7.87
2023-01-29T07:53:47.899Z,7.33
2023-01-29T07:56:16.292Z,7.17
2023-01-29T07:58:44.792Z,7.40
2023-01-29T08:01:13.313Z,7.40
2023-01-29T08:03:43.434Z,8.00
2023-01-29T08:06:12.298Z,7.70
2023-01-29T08:08:40.880Z,7.10
2023-01-29T08:11:09.585Z,7.17
2023-01-29T08:13:38.455Z,7.07
2023-01-29T08:16:08.297Z,7.33
2023-01-29T08:18:38.354Z,7.67
2023-01-29T08:21:08.397Z,7.77
2023-01-29T08:23:36.868Z,7.57
2023-01-29T08:26:06.721Z,7.70
2023-01-29T08:28:35.218Z,7.83
2023-01-29T08:31:04.088Z,7.83
2023-01-29T08:33:39.072Z,7.53
2023-01-29T08:36:11.410Z,8.00
2023-01-29T08:38:39.903Z,7.80
2023-01-29T08:41:09.053Z,8.00
2023-01-29T08:43:38.549Z,7.57
2023-01-29T08:46:08.317Z,7.03
2023-01-29T08:48:36.987Z,8.00
2023-01-29T08:51:06.180Z,7.40
2023-01-29T08:53:36.322Z,7.60
2023-01-29T08:56:05.072Z,7.87
2023-01-29T08:58:33.876Z,7.87
2023-01-29T09:01:08.977Z,7.60
2023-01-29T09:03:37.420Z,7.03
2023-01-29T09:06:06.629Z,7.77
2023-01-29T09:08:36.538Z,7.77
2023-01-29T09:11:05.206Z,7.80
2023-01-29T09:13:34.470Z,7.70
2023-01-29T09:16:04.412Z,7.97
2023-01-29T09:18:33.017Z,8.30
2023-01-29T09:21:02.623Z,8.03
2023-01-29T09:23:31.413Z,8.37
2023-01-29T09:26:01.708Z,8.87
2023-01-29T09:28:30.147Z,9.07
2023-01-29T09:31:02.227Z,8.57
2023-01-29T09:33:31.154Z,8.50
2023-01-29T09:35:59.672Z,8.97
2023-01-29T09:38:28.465Z,9.70
2023-01-29T09:41:10.645Z,9.53
2023-01-29T09:43:48.896Z,9.03
2023-01-29T09:46:35.160Z,8.53
2023-01-29T09:49:10.206Z,8.33
2023-01-29T09:51:45.018Z,8.17
2023-01-29T09:54:20.328Z,8.60
2023-01-29T09:56:55.009Z,8.23
2023-01-29T09:59:26.961Z,8.47
2023-01-29T10:02:07.673Z,8.70
2023-01-29T10:05:02.930Z,9.03
2023-01-29T10:08:05.981Z,9.03
2023-01-29T10:10:50.792Z,8.70
2023-01-29T10:13:33.924Z,8.07
2023-01-29T10:16:34.768Z,8.30
2023-01-29T10:19:19.367Z,8.00
2023-01-29T10:22:05.154Z,7.93
2023-01-29T10:24:39.939Z,7.50
2023-01-29T10:27:16.281Z,8.23
2023-01-29T10:29:48.768Z,8.27
2023-01-29T10:32:20.708Z,8.90
2023-01-29T10:34:54.215Z,9.27
2023-01-29T10:37:27.147Z,8.73
2023-01-29T10:39:55.751Z,8.33
2023-01-29T10:42:32.847Z,8.37
2023-01-29T10:45:23.549Z,8.63
2023-01-29T10:48:36.923Z,8.67
2023-01-29T10:51:19.393Z,8.77
2023-01-29T10:54:05.319Z,8.57
2023-01-29T10:56:54.486Z,9.17
2023-01-29T10:59:39.096Z,9.90
2023-01-29T11:02:19.656Z,8.67
2023-01-29T11:04:48.549Z,8.43
2023-01-29T11:07:20.010Z,8.87
2023-01-29T11:09:58.336Z,8.50
2023-01-29T11:12:32.048Z,9.13
2023-01-29T11:15:07.118Z,9.67
2023-01-29T11:17:36.984Z,8.20
2023-01-29T11:20:27.623Z,8.50
2023-01-29T11:22:56.731Z,9.33
2023-01-29T11:25:26.078Z,9.20
2023-01-29T11:27:57.238Z,9.43
2023-01-29T11:30:29.208Z,9.57
2023-01-29T11:33:11.517Z,9.23
2023-01-29T11:35:40.078Z,8.70
2023-01-29T11:38:19.789Z,9.17
2023-01-29T11:40:49.098Z,9.10
2023-01-29T11:43:25.104Z,9.00
2023-01-29T11:45:57.859Z,9.23
2023-01-29T11:48:40.517Z,8.60
2023-01-29T11:51:11.849Z,8.27
2023-01-29T11:53:43.109Z,9.17
2023-01-29T11:56:23.896Z,9.13
2023-01-29T11:58:55.414Z,8.40
2023-01-29T12:01:33.280Z,9.07
2023-01-29T12:04:04.601Z,9.10
2023-01-29T12:06:37.630Z,8.53
2023-01-29T12:09:16.988Z,8.67
2023-01-29T12:11:45.835Z,7.90
2023-01-29T12:14:33.459Z,8.80
2023-01-29T12:17:13.535Z,8.13
2023-01-29T12:19:48.445Z,8.20
2023-01-29T12:22:22.308Z,8.23
2023-01-29T12:24:56.199Z,8.17
2023-01-29T12:27:33.120Z,8.43
2023-01-29T12:30:09.324Z,8.33
2023-01-29T12:32:46.563Z,8.13
2023-01-29T12:35:23.766Z,7.87
2023-01-29T12:38:00.919Z,8.50
2023-01-29T12:40:34.560Z,8.37
2023-01-29T12:43:12.020Z,7.13
2023-01-29T12:45:42.983Z,8.00
2023-01-29T12:48:15.516Z,7.77
2023-01-29T12:50:46.403Z,8.30
2023-01-29T12:53:26.460Z,8.30
2023-01-29T12:56:00.458Z,7.97
2023-01-29T12:58:35.444Z,7.20
2023-01-29T13:01:13.792Z,7.43
2023-01-29T13:03:52.113Z,7.60
2023-01-29T13:06:24.944Z,7.37
2023-01-29T13:08:55.931Z,7.37
2023-01-29T13:11:31.210Z,6.80
2023-01-29T13:14:03.898Z,7.47
2023-01-29T13:16:39.766Z,7.27
2023-01-29T13:19:19.111Z,6.57
2023-01-29T13:21:49.965Z,7.10
2023-01-29T13:24:22.959Z,7.23
2023-01-29T13:26:52.059Z,7.23
2023-01-29T13:29:26.464Z,7.37
2023-01-29T13:31:57.316Z,7.07
2023-01-29T13:34:29.220Z,6.60
2023-01-29T13:37:02.453Z,6.33
2023-01-29T13:39:35.521Z,7.23
2023-01-29T13:42:18.363Z,6.40
2023-01-29T13:44:51.173Z,6.33
2023-01-29T13:47:28.079Z,6.10
2023-01-29T13:50:01.028Z,6.63
2023-01-29T13:52:39.873Z,6.13
2023-01-29T13:55:22.654Z,5.73
2023-01-29T13:57:56.279Z,6.40
2023-01-29T14:01:02.189Z,6.77
2023-01-29T14:04:03.648Z,6.47
2023-01-29T14:06:49.491Z,5.60
2023-01-29T14:10:11.145Z,6.27
2023-01-29T14:12:52.439Z,6.50
2023-01-29T14:15:33.600Z,6.43
2023-01-29T14:18:19.622Z,6.17
2023-01-29T14:21:01.779Z,6.43
2023-01-29T14:23:49.653Z,6.63
2023-01-29T14:26:31.589Z,6.30
2023-01-29T14:29:09.256Z,6.37
2023-01-29T14:31:48.331Z,6.77
2023-01-29T14:34:25.520Z,6.70
2023-01-29T14:36:58.016Z,6.97
2023-01-29T14:39:43.973Z,6.33
2023-01-29T14:42:24.168Z,6.40
2023-01-29T14:45:11.594Z,6.47
2023-01-29T14:48:38.630Z,6.10
2023-01-29T14:51:10.890Z,5.33
2023-01-29T14:53:54.880Z,5.73
2023-01-29T14:56:30.796Z,6.47
2023-01-29T14:59:14.120Z,5.83
2023-01-29T15:01:50.069Z,6.10
2023-01-29T15:04:22.742Z,5.70
2023-01-29T15:06:57.572Z,5.53
2023-01-29T15:09:40.816Z,5.63
2023-01-29T15:12:21.860Z,5.73
2023-01-29T15:15:06.347Z,5.53
2023-01-29T15:17:43.693Z,5.43
2023-01-29T15:20:33.637Z,5.57
2023-01-29T15:23:04.557Z,5.87
2023-01-29T15:25:38.106Z,5.33
2023-01-29T15:28:10.257Z,5.30
2023-01-29T15:30:43.134Z,5.17
2023-01-29T15:33:14.176Z,5.27
2023-01-29T15:35:44.172Z,4.97
2023-01-29T15:38:22.015Z,5.30
2023-01-29T15:40:54.710Z,5.57
2023-01-29T15:43:25.754Z,5.30
2023-01-29T15:46:00.508Z,4.90
2023-01-29T15:48:34.478Z,7.57
2023-01-29T15:51:07.396Z,9.50
2023-01-29T15:53:42.579Z,7.70
2023-01-29T15:56:12.775Z,10.57
2023-01-29T15:58:43.040Z,10.10
2023-01-29T16:01:13.334Z,7.53
2023-01-29T16:03:42.515Z,6.43
2023-01-29T16:06:11.102Z,6.53
2023-01-29T16:08:41.441Z,7.27
2023-01-29T16:11:10.910Z,5.87
2023-01-29T16:13:43.259Z,6.87
2023-01-29T16:16:24.304Z,6.13
2023-01-29T16:19:01.354Z,6.10
2023-01-29T16:21:35.845Z,6.43
2023-01-29T16:24:10.075Z,5.83
2023-01-29T16:26:47.131Z,5.53
2023-01-29T16:29:19.971Z,5.63
2023-01-29T16:31:54.656Z,6.23
2023-01-29T16:34:28.545Z,6.43
2023-01-29T16:36:57.771Z,6.73
2023-01-29T16:39:29.409Z,6.23
2023-01-29T16:42:23.262Z,6.73
2023-01-29T16:44:56.088Z,5.87
2023-01-29T16:47:31.508Z,6.30
2023-01-29T16:50:02.463Z,6.97
2023-01-29T16:52:34.458Z,6.40
2023-01-29T16:55:21.523Z,5.30
2023-01-29T16:57:54.670Z,6.43
2023-01-29T17:00:27.912Z,6.10
2023-01-29T17:03:02.387Z,5.77
2023-01-29T17:05:33.456Z,5.60
2023-01-29T17:08:02.109Z,6.37
2023-01-29T17:10:31.919Z,6.97
2023-01-29T17:13:06.381Z,7.07
2023-01-29T17:15:44.542Z,7.17
2023-01-29T17:18:19.984Z,6.83
2023-01-29T17:20:49.318Z,6.33
2023-01-29T17:23:18.161Z,7.40
2023-01-29T17:25:47.487Z,6.37
2023-01-29T17:28:18.646Z,6.47
2023-01-29T17:31:00.177Z,7.03
2023-01-29T17:33:35.942Z,6.60
2023-01-29T17:36:05.121Z,6.77
2023-01-29T17:38:34.256Z,7.67
2023-01-29T17:41:07.818Z,7.03
2023-01-29T17:43:36.314Z,6.97
2023-01-29T17:46:05.253Z,7.37
2023-01-29T17:48:35.379Z,7.13
2023-01-29T17:51:06.025Z,6.43
2023-01-29T17:53:45.218Z,5.97
2023-01-29T17:56:20.321Z,6.07
2023-01-29T17:58:48.866Z,6.53
2023-01-29T18:01:17.467Z,7.13
2023-01-29T18:03:47.712Z,6.60
2023-01-29T18:06:27.165Z,7.60
2023-01-29T18:08:56.359Z,6.37
2023-01-29T18:11:24.798Z,8.80
2023-01-29T18:13:53.435Z,8.33
2023-01-29T18:16:23.015Z,9.77
2023-01-29T18:18:54.127Z,8.37
2023-01-29T18:21:22.685Z,8.43
2023-01-29T18:23:54.121Z,13.93
2023-01-29T18:26:23.445Z,10.47
2023-01-29T18:28:52.083Z,13.53
2023-01-29T18:31:20.665Z,25.47
2023-01-29T18:33:49.212Z,14.73
2023-01-29T18:36:19.055Z,15.07
2023-01-29T18:38:47.598Z,15.53
2023-01-29T18:41:16.000Z,15.53
2023-01-29T18:43:44.679Z,11.10
2023-01-29T18:46:13.370Z,9.87
2023-01-29T18:48:42.936Z,7.70
2023-01-29T18:51:11.926Z,8.80
2023-01-29T18:53:41.769Z,7.80
2023-01-29T18:56:11.775Z,7.60
2023-01-29T18:58:40.661Z,6.80
2023-01-29T19:01:12.113Z,6.70
2023-01-29T19:03:41.899Z,6.20
2023-01-29T19:06:12.335Z,6.60
2023-01-29T19:08:43.934Z,6.50
2023-01-29T19:11:12.950Z,6.23
2023-01-29T19:13:42.615Z,6.90
2023-01-29T19:16:12.651Z,7.27
2023-01-29T19:18:41.770Z,6.40
2023-01-29T19:21:12.903Z,6.53
2023-01-29T19:23:43.462Z,6.07
2023-01-29T19:26:13.634Z,7.33
2023-01-29T19:28:42.646Z,6.10
2023-01-29T19:31:11.568Z,6.37
2023-01-29T19:33:40.708Z,13.47
2023-01-29T19:36:10.304Z,10.53
2023-01-29T19:38:39.863Z,8.63
2023-01-29T19:41:10.037Z,9.10
2023-01-29T19:43:41.905Z,10.40
2023-01-29T19:46:11.804Z,8.53
2023-01-29T19:48:40.337Z,7.00
2023-01-29T19:51:12.151Z,6.63
2023-01-29T19:53:43.993Z,5.87
2023-01-29T19:56:17.083Z,6.17
2023-01-29T19:58:46.040Z,6.10
2023-01-29T20:01:18.487Z,5.50
2023-01-29T20:03:49.111Z,5.57
2023-01-29T20:06:20.316Z,5.50
2023-01-29T20:08:48.797Z,5.10
2023-01-29T20:11:23.135Z,5.30
2023-01-29T20:13:53.512Z,5.50
2023-01-29T20:16:23.408Z,5.87
2023-01-29T20:18:53.254Z,5.13
2023-01-29T20:21:23.652Z,5.83
2023-01-29T20:23:53.773Z,5.60
2023-01-29T20:26:23.579Z,5.53
2023-01-29T20:28:52.391Z,5.90
2023-01-29T20:31:21.096Z,5.10
2023-01-29T20:33:49.965Z,5.40
2023-01-29T20:36:18.363Z,5.07
2023-01-29T20:38:48.189Z,5.57
2023-01-29T20:41:18.486Z,5.43
2023-01-29T20:43:50.796Z,4.90
2023-01-29T20:46:19.850Z,5.47
2023-01-29T20:48:49.481Z,5.00
2023-01-29T20:51:18.644Z,5.37
2023-01-29T20:53:48.676Z,5.70
2023-01-29T20:56:23.254Z,5.03
2023-01-29T20:59:09.416Z,5.40
2023-01-29T21:01:38.158Z,5.80
2023-01-29T21:04:06.777Z,5.23
2023-01-29T21:06:35.440Z,5.83
2023-01-29T21:09:04.354Z,5.70
2023-01-29T21:11:33.534Z,6.00
2023-01-29T21:14:02.042Z,5.73
2023-01-29T21:16:31.926Z,5.77
2023-01-29T21:19:00.908Z,5.17
2023-01-29T21:21:30.034Z,5.73
2023-01-29T21:23:59.205Z,5.77
2023-01-29T21:26:27.789Z,6.10
2023-01-29T21:28:56.323Z,4.90
2023-01-29T21:31:24.779Z,5.57
2023-01-29T21:33:54.645Z,5.97
2023-01-29T21:36:23.224Z,5.70
2023-01-29T21:38:52.013Z,6.30
2023-01-29T21:41:40.498Z,5.63
2023-01-29T21:44:08.420Z,6.30
2023-01-29T21:46:37.069Z,6.03
2023-01-29T21:49:07.484Z,6.03
2023-01-29T21:51:35.918Z,5.80
2023-01-29T21:54:04.632Z,6.77
2023-01-29T21:56:33.143Z,5.43
2023-01-29T21:59:02.745Z,6.27
2023-01-29T22:01:37.272Z,5.90
2023-01-29T22:04:09.752Z,6.23
2023-01-29T22:06:38.212Z,6.23
2023-01-29T22:09:06.759Z,5.77
2023-01-29T22:11:35.486Z,6.30
2023-01-29T22:14:03.991Z,6.37
2023-01-29T22:16:32.602Z,6.30
2023-01-29T22:19:01.209Z,6.33
2023-01-29T22:21:31.431Z,5.90
2023-01-29T22:23:59.922Z,5.83
2023-01-29T22:26:29.656Z,6.30
2023-01-29T22:28:58.130Z,5.87
2023-01-29T22:31:26.712Z,5.50
2023-01-29T22:33:55.406Z,6.33
2023-01-29T22:36:23.844Z,6.03
2023-01-29T22:38:53.615Z,6.17
2023-01-29T22:41:22.049Z,5.53
2023-01-29T22:43:50.657Z,5.93
2023-01-29T22:46:19.004Z,6.57
2023-01-29T22:48:47.914Z,6.23
2023-01-29T22:51:16.444Z,6.07
2023-01-29T22:53:50.720Z,6.10
2023-01-29T22:56:21.606Z,5.90
2023-01-29T22:58:52.549Z,6.87
2023-01-29T23:01:22.591Z,6.50
2023-01-29T23:03:51.265Z,7.03
2023-01-29T23:06:21.751Z,6.90
2023-01-29T23:08:50.843Z,6.47
2023-01-29T23:11:23.602Z,6.43
2023-01-29T23:13:54.318Z,6.53
2023-01-29T23:16:26.972Z,6.50
2023-01-29T23:18:57.428Z,5.57
2023-01-29T23:21:27.698Z,6.80
2023-01-29T23:23:58.343Z,6.57
2023-01-29T23:26:46.716Z,5.97
2023-01-29T23:29:15.755Z,6.30
2023-01-29T23:31:44.336Z,6.23
2023-01-29T23:34:13.632Z,6.70
2023-01-29T23:36:42.822Z,6.90
2023-01-29T23:39:11.604Z,6.67
2023-01-29T23:41:41.484Z,6.93
2023-01-29T23:44:10.354Z,6.90
2023-01-29T23:46:38.816Z,6.47
2023-01-29T23:49:07.582Z,6.63
2023-01-29T23:51:36.138Z,6.60
2023-01-29T23:54:05.884Z,6.43
2023-01-29T23:56:34.362Z,6.30
2023-01-29T23:59:04.581Z,6.57
